createdAt,value
2019-04-16T00:02:48.488Z,9.68
2019-04-16T00:05:51.449Z,9.63
2019-04-16T00:08:46.272Z,9.55
2019-04-16T00:11:47.212Z,9.48
2019-04-16T00:14:41.692Z,9.44
2019-04-16T00:17:31.504Z,9.38
2019-04-16T00:20:22.654Z,9.33
2019-04-16T00:23:18.427Z,9.29
2019-04-16T00:26:08.260Z,9.24
2019-04-16T00:29:01.596Z,9.20
2019-04-16T00:31:53.551Z,9.15
2019-04-16T00:34:44.865Z,9.08
2019-04-16T00:37:35.519Z,9.04
2019-04-16T00:40:26.603Z,9.00
2019-04-16T00:43:17.149Z,8.96
2019-04-16T00:46:08.310Z,8.91
2019-04-16T00:48:58.089Z,8.90
2019-04-16T00:51:48.521Z,8.88
2019-04-16T00:54:39.216Z,8.88
2019-04-16T00:57:30.098Z,8.88
2019-04-16T01:00:20.054Z,8.87
2019-04-16T01:03:10.444Z,8.86
2019-04-16T01:06:00.471Z,8.86
2019-04-16T01:08:54.753Z,8.86
2019-04-16T01:11:41.936Z,8.86
2019-04-16T01:14:32.162Z,8.85
2019-04-16T01:17:22.270Z,8.82
2019-04-16T01:20:13.113Z,8.79
2019-04-16T01:23:03.475Z,8.77
2019-04-16T01:25:55.664Z,8.74
2019-04-16T01:28:51.055Z,8.69
2019-04-16T01:31:58.517Z,8.64
2019-04-16T01:35:18.653Z,8.61
2019-04-16T01:38:20.316Z,8.50
2019-04-16T01:41:12.151Z,8.41
2019-04-16T01:44:01.978Z,8.32
2019-04-16T01:46:52.018Z,8.28
2019-04-16T01:49:42.157Z,8.26
2019-04-16T01:52:32.313Z,8.21
2019-04-16T01:55:25.547Z,8.18
2019-04-16T01:58:13.597Z,8.15
2019-04-16T02:01:04.144Z,8.11
2019-04-16T02:03:53.495Z,8.08
2019-04-16T02:06:42.844Z,8.08
2019-04-16T02:09:34.713Z,8.10
2019-04-16T02:12:24.356Z,8.10
2019-04-16T02:15:14.214Z,8.09
2019-04-16T02:18:04.073Z,8.07
2019-04-16T02:20:53.883Z,8.04
2019-04-16T02:23:45.402Z,8.00
2019-04-16T02:26:35.688Z,7.99
2019-04-16T02:29:29.802Z,7.97
2019-04-16T02:32:16.638Z,7.96
2019-04-16T02:35:07.293Z,7.95
2019-04-16T02:37:57.389Z,7.92
2019-04-16T02:40:51.988Z,7.90
2019-04-16T02:43:41.030Z,7.91
2019-04-16T02:46:32.484Z,7.89
2019-04-16T02:49:24.486Z,7.89
2019-04-16T02:52:20.784Z,7.89
2019-04-16T02:55:42.927Z,7.86
2019-04-16T02:58:34.399Z,7.89
2019-04-16T03:02:00.074Z,7.84
2019-04-16T03:04:58.216Z,7.83
2019-04-16T03:07:47.312Z,7.78
2019-04-16T03:10:37.415Z,7.78
2019-04-16T03:13:28.263Z,7.79
2019-04-16T03:16:30.975Z,7.79
2019-04-16T03:19:25.469Z,7.78
2019-04-16T03:22:15.142Z,7.78
2019-04-16T03:25:05.680Z,7.78
2019-04-16T03:27:55.765Z,7.81
2019-04-16T03:30:45.338Z,7.79
2019-04-16T03:33:35.520Z,7.77
2019-04-16T03:36:26.487Z,7.75
2019-04-16T03:39:16.615Z,7.74
2019-04-16T03:42:06.853Z,7.73
2019-04-16T03:44:56.680Z,7.72
2019-04-16T03:47:50.941Z,7.68
2019-04-16T03:50:37.558Z,7.67
2019-04-16T03:53:27.553Z,7.65
2019-04-16T03:56:17.563Z,7.65
2019-04-16T03:59:10.731Z,7.63
2019-04-16T04:01:59.025Z,7.59
2019-04-16T04:04:57.580Z,7.55
2019-04-16T04:07:45.874Z,7.50
2019-04-16T04:10:37.074Z,7.44
2019-04-16T04:13:26.162Z,7.37
2019-04-16T04:16:16.430Z,7.32
2019-04-16T04:19:06.636Z,7.25
2019-04-16T04:21:56.140Z,7.21
2019-04-16T04:24:45.902Z,7.17
2019-04-16T04:27:35.635Z,7.11
2019-04-16T04:30:28.692Z,7.08
2019-04-16T04:33:40.909Z,7.04
2019-04-16T04:36:28.418Z,7.01
2019-04-16T04:39:18.427Z,6.96
2019-04-16T04:42:08.682Z,6.97
2019-04-16T04:44:59.275Z,6.98
2019-04-16T04:47:51.590Z,7.01
2019-04-16T04:50:41.251Z,7.03
2019-04-16T04:53:31.513Z,7.06
2019-04-16T04:56:21.467Z,7.11
2019-04-16T04:59:11.496Z,7.18
2019-04-16T05:02:02.584Z,7.25
2019-04-16T05:04:57.886Z,7.33
2019-04-16T05:07:47.773Z,7.42
2019-04-16T05:10:42.791Z,7.54
2019-04-16T05:13:29.855Z,7.68
2019-04-16T05:16:19.833Z,7.88
2019-04-16T05:19:13.802Z,8.04
2019-04-16T05:22:00.835Z,8.21
2019-04-16T05:24:51.005Z,8.38
2019-04-16T05:27:41.586Z,8.52
2019-04-16T05:30:31.495Z,8.71
2019-04-16T05:33:21.931Z,8.92
2019-04-16T05:36:14.568Z,9.10
2019-04-16T05:39:06.656Z,9.33
2019-04-16T05:41:57.059Z,9.54
2019-04-16T05:44:46.730Z,9.77
2019-04-16T05:47:36.712Z,10.00
2019-04-16T05:50:29.650Z,10.18
2019-04-16T05:53:18.634Z,10.37
2019-04-16T05:56:24.095Z,10.57
2019-04-16T05:59:13.295Z,10.80
2019-04-16T06:02:25.301Z,11.00
2019-04-16T06:05:15.397Z,11.20
2019-04-16T06:08:11.951Z,11.32
2019-04-16T06:11:01.770Z,11.37
2019-04-16T06:14:00.315Z,11.53
2019-04-16T06:17:19.000Z,11.74
2019-04-16T06:20:19.568Z,11.92
2019-04-16T06:23:24.735Z,12.19
2019-04-16T06:26:34.022Z,12.41
2019-04-16T06:29:33.706Z,12.21
2019-04-16T06:32:31.874Z,12.57
2019-04-16T06:35:43.396Z,12.65
2019-04-16T06:38:37.746Z,12.37
2019-04-16T06:41:58.831Z,12.79
2019-04-16T06:44:54.091Z,13.06
2019-04-16T06:48:13.125Z,13.30
2019-04-16T06:51:32.935Z,13.55
2019-04-16T06:54:34.378Z,13.76
2019-04-16T06:57:42.958Z,13.91
2019-04-16T07:01:11.292Z,14.15
2019-04-16T07:04:08.621Z,14.41
2019-04-16T07:07:16.527Z,14.62
2019-04-16T07:10:13.919Z,14.94
2019-04-16T07:13:04.019Z,15.22
2019-04-16T07:15:56.896Z,15.53
2019-04-16T07:18:45.935Z,15.84
2019-04-16T07:21:35.763Z,16.07
2019-04-16T07:24:30.194Z,16.38
2019-04-16T07:27:20.051Z,16.64
2019-04-16T07:30:19.709Z,16.90
2019-04-16T07:33:15.990Z,17.18
2019-04-16T07:36:24.219Z,16.92
2019-04-16T07:39:29.803Z,16.87
2019-04-16T07:42:22.796Z,16.97
2019-04-16T07:45:25.911Z,17.57
2019-04-16T07:48:35.151Z,18.21
2019-04-16T07:51:30.052Z,18.44
2019-04-16T07:54:37.803Z,18.85
2019-04-16T07:57:27.594Z,19.23
2019-04-16T08:00:18.031Z,19.68
2019-04-16T08:03:07.813Z,20.08
2019-04-16T08:05:57.912Z,20.43
2019-04-16T08:08:48.958Z,20.17
2019-04-16T08:11:39.086Z,20.11
2019-04-16T08:14:29.387Z,20.12
2019-04-16T08:17:19.465Z,20.13
2019-04-16T08:20:09.604Z,19.49
2019-04-16T08:23:02.034Z,19.73
2019-04-16T08:26:01.956Z,19.81
2019-04-16T08:28:43.218Z,19.92
2019-04-16T08:31:35.715Z,20.14
2019-04-16T08:34:24.680Z,20.39
2019-04-16T08:37:14.153Z,20.49
2019-04-16T08:40:03.909Z,20.60
2019-04-16T08:42:56.989Z,20.77
2019-04-16T08:45:45.386Z,20.72
2019-04-16T08:48:35.140Z,20.65
2019-04-16T08:51:30.973Z,20.64
2019-04-16T08:54:18.182Z,20.65
2019-04-16T08:57:08.403Z,20.36
2019-04-16T08:59:58.453Z,20.20
2019-04-16T09:02:48.533Z,20.33
2019-04-16T09:05:41.273Z,20.12
2019-04-16T09:08:44.018Z,19.79
2019-04-16T09:11:35.465Z,19.84
2019-04-16T09:14:28.157Z,19.74
2019-04-16T09:17:36.715Z,19.69
2019-04-16T09:20:31.534Z,19.67
2019-04-16T09:23:22.740Z,19.62
2019-04-16T09:26:30.930Z,19.67
2019-04-16T09:29:39.134Z,19.77
2019-04-16T09:33:00.404Z,19.82
2019-04-16T09:36:10.474Z,19.63
2019-04-16T09:39:05.976Z,19.77
2019-04-16T09:41:56.232Z,19.91
2019-04-16T09:44:46.319Z,20.14
2019-04-16T09:47:36.352Z,20.21
2019-04-16T09:50:26.283Z,20.56
2019-04-16T09:53:16.291Z,20.90
2019-04-16T09:56:28.367Z,21.00
2019-04-16T09:59:39.665Z,21.44
2019-04-16T10:02:32.822Z,22.05
2019-04-16T10:05:22.395Z,22.45
2019-04-16T10:08:12.645Z,23.07
2019-04-16T10:11:06.003Z,23.49
2019-04-16T10:13:54.632Z,23.95
2019-04-16T10:16:45.170Z,24.30
2019-04-16T10:19:35.301Z,24.34
2019-04-16T10:22:25.256Z,23.75
2019-04-16T10:25:15.902Z,23.70
2019-04-16T10:28:14.993Z,22.92
2019-04-16T10:31:05.173Z,23.13
2019-04-16T10:33:55.070Z,22.77
2019-04-16T10:36:44.923Z,23.22
2019-04-16T10:39:39.597Z,23.74
2019-04-16T10:42:51.503Z,24.61
2019-04-16T10:45:56.249Z,25.00
2019-04-16T10:48:53.783Z,26.03
2019-04-16T10:52:01.661Z,27.15
2019-04-16T10:55:09.403Z,28.32
2019-04-16T10:58:17.351Z,29.15
2019-04-16T11:01:55.344Z,30.01
2019-04-16T11:05:02.183Z,30.57
2019-04-16T11:07:51.622Z,30.44
2019-04-16T11:10:41.998Z,29.74
2019-04-16T11:13:35.015Z,30.45
2019-04-16T11:16:25.125Z,31.14
2019-04-16T11:19:15.264Z,31.52
2019-04-16T11:22:05.671Z,32.16
2019-04-16T11:24:55.696Z,32.73
2019-04-16T11:27:46.013Z,33.05
2019-04-16T11:30:41.281Z,33.40
2019-04-16T11:33:31.227Z,34.01
2019-04-16T11:36:21.172Z,34.45
2019-04-16T11:39:11.898Z,32.79
2019-04-16T11:42:02.193Z,32.28
2019-04-16T11:44:52.108Z,33.11
2019-04-16T11:47:43.221Z,33.71
2019-04-16T11:50:35.854Z,34.06
2019-04-16T11:53:24.303Z,33.78
2019-04-16T11:56:14.093Z,32.27
2019-04-16T11:59:05.199Z,30.62
2019-04-16T12:02:10.651Z,31.26
2019-04-16T12:05:04.925Z,31.55
2019-04-16T12:08:03.720Z,31.75
2019-04-16T12:11:12.307Z,31.04
2019-04-16T12:14:30.990Z,30.36
2019-04-16T12:17:22.193Z,29.27
2019-04-16T12:20:22.803Z,29.41
2019-04-16T12:23:32.241Z,29.77
2019-04-16T12:26:49.073Z,30.19
2019-04-16T12:29:49.402Z,30.22
2019-04-16T12:32:47.418Z,30.11
2019-04-16T12:35:54.373Z,30.01
2019-04-16T12:38:57.659Z,29.40
2019-04-16T12:42:06.629Z,29.05
2019-04-16T12:45:00.438Z,28.60
2019-04-16T12:48:08.154Z,28.25
2019-04-16T12:51:19.559Z,27.14
2019-04-16T12:54:28.719Z,27.03
2019-04-16T12:57:33.782Z,26.94
2019-04-16T13:00:55.415Z,26.79
2019-04-16T13:03:52.610Z,26.85
2019-04-16T13:06:48.951Z,26.68
2019-04-16T13:09:56.777Z,26.39
2019-04-16T13:13:17.708Z,26.55
2019-04-16T13:16:13.548Z,27.07
2019-04-16T13:19:21.679Z,27.33
2019-04-16T13:22:12.128Z,27.56
2019-04-16T13:25:08.997Z,27.10
2019-04-16T13:27:58.842Z,26.33
2019-04-16T13:30:48.399Z,26.02
2019-04-16T13:33:38.310Z,25.60
2019-04-16T13:36:28.329Z,25.37
2019-04-16T13:39:47.700Z,25.16
2019-04-16T13:42:38.034Z,25.06
2019-04-16T13:45:31.213Z,24.19
2019-04-16T13:48:29.264Z,24.17
2019-04-16T13:51:21.344Z,24.21
2019-04-16T13:54:21.208Z,24.16
2019-04-16T13:57:14.730Z,24.24
2019-04-16T14:00:14.003Z,23.84
2019-04-16T14:03:08.529Z,23.80
2019-04-16T14:05:58.385Z,23.57
2019-04-16T14:08:48.434Z,23.48
2019-04-16T14:11:38.118Z,23.30
2019-04-16T14:14:29.464Z,23.13
2019-04-16T14:17:22.651Z,22.91
2019-04-16T14:20:13.973Z,22.25
2019-04-16T14:23:04.602Z,22.28
2019-04-16T14:25:54.502Z,22.29
2019-04-16T14:28:52.114Z,22.15
2019-04-16T14:31:36.313Z,22.28
2019-04-16T14:35:00.231Z,22.14
2019-04-16T14:37:49.940Z,22.16
2019-04-16T14:40:42.355Z,21.92
2019-04-16T14:43:35.552Z,21.80
2019-04-16T14:46:28.281Z,21.48
2019-04-16T14:49:18.241Z,21.66
2019-04-16T14:52:09.092Z,21.25
2019-04-16T14:55:03.873Z,21.45
2019-04-16T14:58:05.063Z,21.57
2019-04-16T15:01:05.370Z,21.63
2019-04-16T15:04:13.394Z,21.65
2019-04-16T15:07:12.317Z,21.56
2019-04-16T15:10:27.415Z,21.56
2019-04-16T15:13:31.120Z,21.44
2019-04-16T15:16:36.744Z,21.33
2019-04-16T15:19:28.762Z,21.01
2019-04-16T15:22:36.115Z,21.18
2019-04-16T15:25:29.413Z,21.15
2019-04-16T15:28:23.091Z,21.02
2019-04-16T15:31:19.650Z,21.06
2019-04-16T15:34:15.587Z,21.06
2019-04-16T15:37:19.273Z,21.06
2019-04-16T15:40:19.028Z,21.07
2019-04-16T15:43:31.113Z,20.84
2019-04-16T15:46:41.381Z,20.74
2019-04-16T15:49:55.662Z,20.58
2019-04-16T15:53:02.616Z,20.28
2019-04-16T15:55:57.898Z,20.34
2019-04-16T15:59:08.263Z,20.49
2019-04-16T16:02:14.797Z,20.56
2019-04-16T16:05:25.994Z,20.56
2019-04-16T16:08:43.909Z,20.30
2019-04-16T16:11:51.822Z,20.46
2019-04-16T16:14:41.864Z,20.49
2019-04-16T16:17:32.962Z,20.50
2019-04-16T16:20:23.048Z,20.52
2019-04-16T16:23:13.648Z,20.44
2019-04-16T16:26:03.472Z,20.45
2019-04-16T16:28:53.398Z,20.42
2019-04-16T16:31:44.240Z,20.44
2019-04-16T16:34:34.657Z,20.44
2019-04-16T16:37:24.453Z,20.42
2019-04-16T16:40:16.058Z,20.34
2019-04-16T16:43:08.381Z,20.26
2019-04-16T16:46:26.847Z,20.20
2019-04-16T16:49:16.769Z,20.14
2019-04-16T16:52:24.349Z,20.07
2019-04-16T16:55:29.343Z,20.05
2019-04-16T16:58:42.182Z,20.00
2019-04-16T17:01:38.832Z,19.78
2019-04-16T17:04:31.714Z,19.77
2019-04-16T17:07:20.852Z,19.79
2019-04-16T17:10:10.747Z,19.82
2019-04-16T17:13:00.935Z,19.75
2019-04-16T17:15:50.916Z,19.67
2019-04-16T17:18:40.929Z,19.23
2019-04-16T17:21:30.029Z,19.33
2019-04-16T17:24:19.750Z,19.33
2019-04-16T17:27:09.601Z,19.33
2019-04-16T17:29:59.629Z,19.25
2019-04-16T17:32:49.564Z,19.08
2019-04-16T17:35:39.493Z,19.09
2019-04-16T17:38:29.280Z,19.10
2019-04-16T17:41:24.547Z,19.03
2019-04-16T17:44:29.231Z,18.89
2019-04-16T17:47:36.479Z,18.83
2019-04-16T17:50:41.708Z,18.82
2019-04-16T17:53:44.244Z,18.76
2019-04-16T17:57:08.518Z,18.65
2019-04-16T18:00:16.973Z,18.56
2019-04-16T18:03:24.869Z,18.46
2019-04-16T18:06:32.494Z,18.35
2019-04-16T18:09:44.085Z,18.26
2019-04-16T18:12:56.459Z,18.19
2019-04-16T18:15:54.191Z,18.08
2019-04-16T18:18:55.566Z,17.93
2019-04-16T18:22:11.013Z,17.82
2019-04-16T18:25:25.583Z,17.79
2019-04-16T18:28:29.264Z,17.72
2019-04-16T18:31:27.877Z,17.65
2019-04-16T18:34:40.275Z,17.56
2019-04-16T18:37:48.738Z,17.49
2019-04-16T18:40:45.749Z,17.44
2019-04-16T18:43:53.155Z,17.37
2019-04-16T18:47:11.681Z,17.26
2019-04-16T18:50:05.405Z,17.16
2019-04-16T18:52:55.478Z,17.02
2019-04-16T18:55:45.529Z,16.94
2019-04-16T18:58:35.543Z,16.88
2019-04-16T19:01:32.613Z,16.83
2019-04-16T19:04:21.552Z,16.81
2019-04-16T19:07:11.606Z,16.76
2019-04-16T19:10:00.885Z,16.71
2019-04-16T19:12:51.614Z,16.60
2019-04-16T19:15:41.262Z,16.35
2019-04-16T19:18:30.812Z,16.42
2019-04-16T19:21:20.923Z,16.37
2019-04-16T19:24:10.212Z,16.36
2019-04-16T19:27:00.547Z,16.33
2019-04-16T19:29:50.235Z,16.29
2019-04-16T19:32:39.918Z,16.25
2019-04-16T19:35:29.521Z,16.17
2019-04-16T19:38:19.856Z,16.16
2019-04-16T19:41:09.889Z,16.09
2019-04-16T19:43:59.843Z,16.06
2019-04-16T19:46:52.595Z,15.99
2019-04-16T19:49:40.551Z,15.92
2019-04-16T19:52:30.689Z,15.87
2019-04-16T19:55:20.363Z,15.83
2019-04-16T19:58:10.450Z,15.78
2019-04-16T20:01:00.864Z,15.75
2019-04-16T20:03:51.239Z,15.70
2019-04-16T20:06:41.500Z,15.64
2019-04-16T20:09:31.629Z,15.60
2019-04-16T20:12:21.296Z,15.57
2019-04-16T20:15:11.401Z,15.50
2019-04-16T20:18:01.647Z,15.44
2019-04-16T20:20:50.943Z,15.40
2019-04-16T20:23:40.685Z,15.30
2019-04-16T20:26:32.432Z,15.27
2019-04-16T20:29:22.354Z,15.24
2019-04-16T20:32:13.284Z,15.20
2019-04-16T20:35:03.791Z,15.13
2019-04-16T20:37:55.291Z,15.07
2019-04-16T20:40:45.397Z,15.04
2019-04-16T20:43:34.946Z,14.98
2019-04-16T20:46:25.199Z,14.86
2019-04-16T20:49:16.868Z,14.90
2019-04-16T20:52:06.380Z,14.81
2019-04-16T20:54:56.204Z,14.80
2019-04-16T20:57:46.022Z,14.78
2019-04-16T21:00:42.313Z,14.73
2019-04-16T21:03:31.262Z,14.71
2019-04-16T21:06:21.515Z,14.67
2019-04-16T21:09:11.522Z,14.60
2019-04-16T21:12:00.943Z,14.61
2019-04-16T21:14:53.586Z,14.57
2019-04-16T21:17:42.310Z,14.53
2019-04-16T21:20:32.163Z,14.47
2019-04-16T21:23:22.030Z,14.45
2019-04-16T21:26:11.892Z,14.42
2019-04-16T21:29:23.438Z,14.38
2019-04-16T21:32:31.409Z,14.40
2019-04-16T21:35:28.766Z,14.37
2019-04-16T21:38:36.528Z,14.33
2019-04-16T21:41:28.527Z,14.31
2019-04-16T21:44:18.001Z,14.25
2019-04-16T21:47:06.942Z,14.13
2019-04-16T21:49:56.706Z,14.13
2019-04-16T21:52:46.623Z,14.13
2019-04-16T21:55:36.893Z,14.09
2019-04-16T21:58:28.513Z,13.98
2019-04-16T22:01:35.838Z,14.01
2019-04-16T22:04:26.431Z,14.00
2019-04-16T22:07:16.497Z,13.96
2019-04-16T22:10:07.344Z,13.93
2019-04-16T22:12:57.545Z,13.89
2019-04-16T22:15:46.860Z,13.83
2019-04-16T22:18:37.577Z,13.80
2019-04-16T22:21:28.241Z,13.76
2019-04-16T22:24:19.729Z,13.73
2019-04-16T22:27:09.835Z,13.69
2019-04-16T22:29:59.524Z,13.62
2019-04-16T22:32:49.743Z,13.61
2019-04-16T22:35:39.775Z,13.57
2019-04-16T22:38:31.403Z,13.54
2019-04-16T22:41:29.359Z,13.50
2019-04-16T22:44:28.902Z,13.42
2019-04-16T22:47:22.250Z,13.40
2019-04-16T22:50:16.983Z,13.40
2019-04-16T22:53:04.269Z,13.40
2019-04-16T22:55:56.706Z,13.35
2019-04-16T22:58:51.657Z,13.31
2019-04-16T23:01:44.986Z,13.29
2019-04-16T23:04:34.621Z,13.26
2019-04-16T23:07:24.552Z,13.21
2019-04-16T23:10:14.353Z,13.15
2019-04-16T23:13:04.433Z,13.11
2019-04-16T23:15:53.988Z,13.07
2019-04-16T23:18:48.793Z,13.03
2019-04-16T23:21:36.092Z,13.01
2019-04-16T23:24:27.750Z,12.92
2019-04-16T23:27:17.239Z,12.89
2019-04-16T23:30:09.065Z,12.84
2019-04-16T23:33:00.028Z,12.79
2019-04-16T23:35:50.515Z,12.72
2019-04-16T23:38:40.640Z,12.61
2019-04-16T23:41:30.330Z,12.60
2019-04-16T23:44:37.529Z,12.59
2019-04-16T23:47:51.178Z,12.55
2019-04-16T23:51:03.441Z,12.48
2019-04-16T23:53:58.795Z,12.43
2019-04-16T23:57:13.969Z,12.36
